TimePDT,TemperatureF,Dew PointF,Humidity,Sea Level PressureIn,VisibilityMPH,Wind Direction,Wind SpeedMPH,Gust SpeedMPH,PrecipitationIn,Events,Conditions,WindDirDegrees,DateUTC
12:55 AM,57.0,48.0,72,29.81,10.0,WNW,8.1,-,N/A,,Clear,290,2011-10-03 07:55:00
1:55 AM,55.9,48.9,77,29.79,10.0,NNW,9.2,-,N/A,,Scattered Clouds,330,2011-10-03 08:55:00
2:55 AM,55.0,48.9,80,29.78,10.0,NW,5.8,-,N/A,,Mostly Cloudy,310,2011-10-03 09:55:00
3:55 AM,55.0,48.0,77,29.78,10.0,WNW,6.9,-,N/A,,Partly Cloudy,290,2011-10-03 10:55:00
4:55 AM,55.0,48.9,80,29.78,10.0,NNW,9.2,-,N/A,,Clear,330,2011-10-03 11:55:00
6:55 AM,54.0,48.9,83,29.78,10.0,Variable,3.5,-,N/A,,Partly Cloudy,0,2011-10-03 13:55:00
7:55 AM,54.0,48.9,83,29.78,10.0,Calm,Calm,-,N/A,,Mostly Cloudy,0,2011-10-03 14:55:00
8:55 AM,55.9,48.9,77,29.79,10.0,West,6.9,-,N/A,,Overcast,270,2011-10-03 15:55:00
9:55 AM,55.9,50.0,80,29.80,10.0,Calm,Calm,-,0.00,,Overcast,0,2011-10-03 16:55:00
11:55 AM,57.9,51.1,78,29.81,10.0,NW,3.5,-,N/A,,Overcast,310,2011-10-03 18:55:00
12:55 PM,57.0,50.0,77,29.81,10.0,SW,3.5,-,N/A,,Overcast,220,2011-10-03 19:55:00
1:55 PM,57.9,51.1,78,29.80,10.0,East,3.5,-,N/A,,Partly Cloudy,80,2011-10-03 20:55:00
2:55 PM,60.1,50.0,69,29.79,10.0,Calm,Calm,-,N/A,,Clear,0,2011-10-03 21:55:00
3:55 PM,62.1,48.0,60,29.78,10.0,Calm,Calm,-,N/A,,Clear,0,2011-10-03 22:55:00
4:55 PM,62.1,48.0,60,29.77,10.0,ESE,3.5,-,N/A,,Clear,110,2011-10-03 23:55:00
5:55 PM,60.1,50.0,69,29.77,10.0,Calm,Calm,-,N/A,,Clear,0,2011-10-04 00:55:00
6:55 PM,59.0,48.9,69,29.78,10.0,NW,3.5,-,N/A,,Overcast,310,2011-10-04 01:55:00
7:55 PM,59.0,46.0,62,29.78,10.0,NW,8.1,-,N/A,,Overcast,310,2011-10-04 02:55:00
8:55 PM,55.9,46.0,69,29.77,10.0,NNW,10.4,-,0.00,Rain,Light Rain,330,2011-10-04 03:55:00
9:55 PM,55.0,46.0,72,29.76,10.0,NNW,10.4,-,0.01,,Overcast,330,2011-10-04 04:55:00
10:55 PM,55.0,45.0,69,29.77,10.0,NNW,3.5,-,0.00,Rain,Light Rain,330,2011-10-04 05:55:00
11:55 PM,54.0,46.0,75,29.76,10.0,NW,3.5,-,0.01,,Overcast,320,2011-10-04 06:55:00